Time;durP1;ratioP1;P1;durP2;ratioP2;P2;SDS_P1;SDS_P2;PMS_P1;PMS_P2;Temp;Humidity;BMP_temperature;BMP_pressure;BME280_temperature;BME280_humidity;BME280_pressure;Samples;Min_cycle;Max_cycle;Signal;HPM_P1;HPM_P2
2023/01/11 00:00:38;;;;;;;4.10;3.45;;;;;;;7.64;100.00;100555.53;6152640;23;20462;-90
2023/01/11 00:03:04;;;;;;;5.05;3.42;;;;;;;7.72;100.00;100574.63;6152591;23;20423;-89
2023/01/11 00:05:29;;;;;;;3.45;3.15;;;;;;;7.74;100.00;100566.63;6153637;23;20009;-89
2023/01/11 00:07:55;;;;;;;4.22;2.85;;;;;;;7.76;100.00;100575.34;6152031;23;20450;-90
2023/01/11 00:10:20;;;;;;;3.35;3.03;;;;;;;7.74;100.00;100559.53;6152025;23;20032;-89
2023/01/11 00:12:46;;;;;;;4.68;3.42;;;;;;;7.84;100.00;100557.34;6150769;23;20447;-89
2023/01/11 00:15:12;;;;;;;4.47;2.70;;;;;;;7.82;100.00;100545.09;6150717;23;20009;-90
2023/01/11 00:17:37;;;;;;;2.95;2.63;;;;;;;7.91;100.00;100568.53;6152029;23;20012;-89
2023/01/11 00:20:03;;;;;;;3.92;2.30;;;;;;;7.93;100.00;100546.31;6151270;23;20001;-90
2023/01/11 00:22:28;;;;;;;3.42;2.35;;;;;;;7.96;100.00;100551.50;6150392;23;20009;-90
2023/01/11 00:24:54;;;;;;;4.63;2.45;;;;;;;8.02;100.00;100544.19;6149737;23;20008;-89
2023/01/11 00:27:19;;;;;;;3.75;2.20;;;;;;;8.02;100.00;100549.50;6150730;23;20017;-90
2023/01/11 00:29:44;;;;;;;3.55;2.55;;;;;;;8.03;100.00;100551.22;6124996;23;20033;-88
2023/01/11 00:32:10;;;;;;;3.95;3.08;;;;;;;8.06;100.00;100543.13;6148457;23;20368;-89
2023/01/11 00:34:35;;;;;;;2.80;2.22;;;;;;;8.10;100.00;100539.41;6150030;23;20065;-88
2023/01/11 00:37:01;;;;;;;3.05;2.60;;;;;;;8.08;100.00;100543.94;6147768;23;20078;-89
2023/01/11 00:39:27;;;;;;;2.85;2.38;;;;;;;8.02;100.00;100528.28;6151258;23;20029;-89
2023/01/11 00:50:04;;;;;;;3.22;2.92;;;;;;;8.05;100.00;100521.06;6152994;23;19928;-89
2023/01/11 00:52:29;;;;;;;5.05;3.13;;;;;;;8.05;100.00;100520.19;6124432;23;20013;-89
2023/01/11 00:54:54;;;;;;;3.83;3.03;;;;;;;7.99;100.00;100519.56;6152563;23;20064;-90
2023/01/11 00:57:20;;;;;;;3.53;3.15;;;;;;;7.97;100.00;100505.50;6150930;23;20024;-89
2023/01/11 00:59:45;;;;;;;4.05;3.35;;;;;;;8.09;100.00;100527.09;6152007;23;20009;-90
2023/01/11 01:02:11;;;;;;;4.57;3.25;;;;;;;8.03;100.00;100514.13;6151332;23;20051;-90
2023/01/11 01:04:37;;;;;;;3.67;3.38;;;;;;;8.09;100.00;100517.34;6154079;23;20062;-89
2023/01/11 01:07:03;;;;;;;5.75;4.20;;;;;;;7.98;100.00;100509.91;6165928;23;20009;-91
2023/01/11 01:09:29;;;;;;;4.55;3.83;;;;;;;8.01;100.00;100510.66;6176927;23;20025;-91
2023/01/11 01:11:54;;;;;;;4.97;4.38;;;;;;;8.02;100.00;100517.69;6174397;23;20025;-90
2023/01/11 01:14:25;;;;;;;4.75;4.30;;;;;;;8.08;100.00;100522.72;6163977;23;20009;-90
2023/01/11 01:16:58;;;;;;;6.43;4.63;;;;;;;8.01;100.00;100515.97;6156395;23;20010;-91
2023/01/11 01:19:26;;;;;;;;;;;;;;;8.07;100.00;100526.28;6156957;23;20024;-90
2023/01/11 01:21:52;;;;;;;4.80;3.92;;;;;;;8.10;100.00;100518.19;6152366;23;19909;-90
2023/01/11 01:24:17;;;;;;;4.95;4.55;;;;;;;8.02;100.00;100505.28;6150435;23;20039;-91
2023/01/11 01:26:42;;;;;;;6.97;4.55;;;;;;;8.12;100.00;100517.22;6151301;23;20017;-92
2023/01/11 01:29:08;;;;;;;7.05;4.55;;;;;;;8.09;100.00;100521.78;6150167;23;20005;-91
2023/01/11 01:31:33;;;;;;;5.15;4.10;;;;;;;8.10;100.00;100529.66;6150489;23;20084;-90
2023/01/11 01:33:58;;;;;;;5.15;3.83;;;;;;;8.18;100.00;100537.25;6149599;23;20009;-91
2023/01/11 01:36:24;;;;;;;4.15;3.75;;;;;;;8.14;100.00;100507.38;6151147;23;20133;-91
2023/01/11 01:38:49;;;;;;;5.30;4.75;;;;;;;8.14;100.00;100512.69;6125472;23;20359;-91
2023/01/11 01:41:15;;;;;;;4.65;4.25;;;;;;;8.06;100.00;100512.16;6151860;23;20021;-92
2023/01/11 01:43:56;;;;;;;5.68;4.50;;;;;;;8.18;100.00;100526.66;6150232;23;20014;-92
2023/01/11 01:46:25;;;;;;;4.72;4.28;;;;;;;8.21;100.00;100529.19;6165519;23;20009;-91
2023/01/11 01:49:00;;;;;;;5.10;4.55;;;;;;;8.23;100.00;100524.66;6168031;23;20037;-92
2023/01/11 01:51:47;;;;;;;6.75;4.35;;;;;;;8.22;100.00;100525.59;6143145;23;20011;-93
2023/01/11 01:54:19;;;;;;;5.78;4.25;;;;;;;8.19;100.00;100517.75;6145028;23;20024;-90
2023/01/11 01:56:49;;;;;;;5.57;4.97;;;;;;;8.27;100.00;100525.38;6177208;23;20024;-92
2023/01/11 01:59:18;;;;;;;5.65;4.90;;;;;;;8.23;100.00;100517.59;6177420;23;20019;-90
2023/01/11 02:01:47;;;;;;;5.82;4.45;;;;;;;8.28;100.00;100525.31;6171856;23;20005;-90
2023/01/11 02:04:26;;;;;;;5.63;4.60;;;;;;;8.34;100.00;100521.50;6154518;23;20002;-92
2023/01/11 02:06:57;;;;;;;5.50;4.90;;;;;;;8.36;100.00;100530.25;6154995;23;20013;-91
2023/01/11 02:09:48;;;;;;;8.98;5.07;;;;;;;8.37;100.00;100524.06;6156711;23;20400;-91
2023/01/11 02:12:14;;;;;;;6.35;5.75;;;;;;;8.38;100.00;100525.78;6150839;23;20101;-92
2023/01/11 02:14:40;;;;;;;6.22;5.28;;;;;;;8.42;100.00;100519.41;6152903;23;20006;-90
2023/01/11 02:17:05;;;;;;;8.20;5.53;;;;;;;8.30;100.00;100504.88;6152784;23;20087;-91
2023/01/11 02:19:52;;;;;;;5.63;4.88;;;;;;;8.46;100.00;100526.28;6150378;23;20085;-89
2023/01/11 02:22:27;;;;;;;8.63;5.00;;;;;;;8.47;100.00;100528.84;6150690;23;20427;-91
2023/01/11 02:25:26;;;;;;;5.65;4.93;;;;;;;8.47;100.00;100515.59;6150908;23;20073;-92
2023/01/11 02:28:11;;;;;;;5.10;4.60;;;;;;;8.53;100.00;100514.44;6140782;23;20014;-93
2023/01/11 02:30:51;;;;;;;5.38;4.68;;;;;;;8.53;100.00;100513.56;6151038;23;20001;-90
2023/01/11 02:33:40;;;;;;;5.07;4.68;;;;;;;8.57;100.00;100509.84;6149723;23;20010;-92
2023/01/11 02:36:43;;;;;;;5.20;4.68;;;;;;;8.59;100.00;100514.13;6150081;23;20001;-90
2023/01/11 02:39:14;;;;;;;6.10;4.53;;;;;;;8.59;100.00;100505.31;6150801;23;20439;-93
2023/01/11 02:45:01;;;;;;;5.90;5.25;;;;;;;8.60;100.00;100494.63;6151802;23;20106;-92
2023/01/11 02:47:37;;;;;;;6.68;5.28;;;;;;;8.61;100.00;100501.69;6152290;23;20002;-92
2023/01/11 02:50:17;;;;;;;5.70;5.15;;;;;;;8.54;100.00;100489.63;6154050;23;20008;-94
2023/01/11 02:53:06;;;;;;;5.80;5.20;;;;;;;8.62;100.00;100497.22;6153873;23;20428;-92
2023/01/11 02:55:38;;;;;;;5.80;5.20;;;;;;;8.39;100.00;100448.78;6152083;23;20020;-93
2023/01/11 02:58:09;;;;;;;6.97;5.22;;;;;;;8.68;100.00;100486.31;6181000;23;20043;-94
2023/01/11 03:00:42;;;;;;;5.45;4.97;;;;;;;8.69;100.00;100485.38;6182425;23;20005;-91
2023/01/11 03:03:20;;;;;;;7.88;5.30;;;;;;;8.69;100.00;100483.59;6181697;23;20039;-93
2023/01/11 03:05:53;;;;;;;7.53;5.10;;;;;;;8.75;100.00;100489.53;6156768;23;20076;-92
2023/01/11 03:08:31;;;;;;;5.85;5.25;;;;;;;8.77;100.00;100488.50;6183034;23;20064;-92
2023/01/11 03:11:06;;;;;;;6.32;4.78;;;;;;;8.73;100.00;100485.13;6157345;23;20373;-91
2023/01/11 03:13:32;;;;;;;5.43;5.03;;;;;;;8.79;100.00;100488.44;6183504;23;20016;-90
2023/01/11 03:16:18;;;;;;;5.60;5.13;;;;;;;8.80;100.00;100482.19;6185454;23;20405;-95
2023/01/11 03:19:06;;;;;;;6.00;5.25;;;;;;;8.77;100.00;100485.84;6201440;23;20001;-96
2023/01/11 03:21:50;;;;;;;5.53;4.53;;;;;;;8.78;100.00;100486.72;6180565;23;20011;-96
2023/01/11 03:24:56;;;;;;;5.65;5.00;;;;;;;8.78;100.00;100487.59;6178449;23;20013;-94
2023/01/11 03:27:59;;;;;;;5.68;4.85;;;;;;;8.70;100.00;100476.50;6023231;23;20098;-94
2023/01/11 03:30:36;;;;;;;5.80;5.18;;;;;;;8.78;100.00;100487.59;6047588;23;20036;-94
2023/01/11 03:33:10;;;;;;;5.63;5.10;;;;;;;8.81;100.00;100486.56;6043989;23;20020;-91
2023/01/11 03:35:42;;;;;;;5.20;4.70;;;;;;;8.82;100.00;100483.84;6041369;23;20097;-94
2023/01/11 03:38:46;;;;;;;5.53;4.93;;;;;;;8.72;100.00;100477.25;6036885;23;20685;-94
2023/01/11 03:41:18;;;;;;;5.00;4.60;;;;;;;8.83;100.00;100495.31;6036834;23;20084;-95
2023/01/11 03:43:46;;;;;;;4.80;4.40;;;;;;;8.82;100.00;100488.28;6039762;23;20015;-95
2023/01/11 03:46:21;;;;;;;5.03;4.53;;;;;;;8.42;100.00;100415.97;6098379;23;20026;-95
2023/01/11 03:48:57;;;;;;;5.15;4.75;;;;;;;8.86;100.00;100482.78;6126815;23;20013;-92
2023/01/11 03:51:27;;;;;;;5.25;4.50;;;;;;;8.80;100.00;100474.25;6127315;23;20010;-90
2023/01/11 03:53:57;;;;;;;4.80;4.40;;;;;;;8.80;100.00;100468.94;6126498;23;20010;-94
2023/01/11 03:56:28;;;;;;;5.78;4.60;;;;;;;8.84;100.00;100481.13;6124474;23;20014;-93
2023/01/11 03:58:53;;;;;;;6.20;5.30;;;;;;;8.82;100.00;100467.94;6129039;23;20010;-94
2023/01/11 04:01:18;;;;;;;6.03;5.00;;;;;;;8.81;100.00;100474.16;6131740;23;20047;-96
2023/01/11 04:03:44;;;;;;;6.10;5.50;;;;;;;8.82;100.00;100475.00;6126923;23;20017;-92
2023/01/11 04:06:10;;;;;;;5.80;5.18;;;;;;;8.89;100.00;100495.88;6121664;23;20010;-93
2023/01/11 04:08:36;;;;;;;6.88;6.15;;;;;;;8.88;100.00;100486.19;6120881;23;20017;-89
2023/01/11 04:11:03;;;;;;;6.80;6.20;;;;;;;8.95;100.00;100484.09;6121371;23;20010;-93
2023/01/11 04:13:29;;;;;;;7.03;6.28;;;;;;;8.93;100.00;100489.47;6155590;23;20016;-88
2023/01/11 04:15:54;;;;;;;6.65;6.00;;;;;;;8.67;100.00;100436.84;6182712;23;20020;-86
2023/01/11 04:18:20;;;;;;;6.70;5.80;;;;;;;8.72;100.00;100448.94;6183337;23;20015;-89
2023/01/11 04:20:45;;;;;;;8.40;6.35;;;;;;;8.94;100.00;100501.78;6183082;23;20034;-91
2023/01/11 04:23:11;;;;;;;5.55;5.05;;;;;;;9.02;100.00;100513.84;6180022;23;20525;-90
2023/01/11 04:25:36;;;;;;;5.78;4.70;;;;;;;9.02;100.00;100505.88;6157607;23;20342;-92
2023/01/11 04:28:02;;;;;;;5.32;4.80;;;;;;;8.86;100.00;100466.84;6160676;23;20009;-93
2023/01/11 04:30:27;;;;;;;6.90;5.15;;;;;;;8.98;100.00;100489.25;6159199;23;20009;-94
2023/01/11 04:32:52;;;;;;;5.65;5.10;;;;;;;8.99;100.00;100485.66;6153706;23;20019;-95
2023/01/11 04:35:18;;;;;;;5.13;4.65;;;;;;;8.98;100.00;100489.25;6154269;23;20088;-95
2023/01/11 04:37:43;;;;;;;5.00;4.47;;;;;;;8.94;100.00;100474.41;6181657;23;20008;-94
2023/01/11 04:40:09;;;;;;;5.00;4.50;;;;;;;9.12;100.00;100508.00;6179632;23;20005;-93
2023/01/11 04:42:34;;;;;;;6.68;5.13;;;;;;;9.02;100.00;100490.81;6153779;23;20047;-91
2023/01/11 04:45:00;;;;;;;4.75;4.30;;;;;;;8.94;100.00;100474.41;6179327;23;20008;-92
2023/01/11 04:47:25;;;;;;;4.70;4.13;;;;;;;9.00;100.00;100486.53;6154025;23;20005;-91
2023/01/11 04:49:51;;;;;;;5.10;3.92;;;;;;;9.12;100.00;100510.66;6152315;23;20383;-92
2023/01/11 04:52:18;;;;;;;6.25;4.57;;;;;;;9.13;100.00;100515.03;6150700;23;20009;-92
2023/01/11 04:54:44;;;;;;;5.07;3.80;;;;;;;9.15;100.00;100496.34;6178602;23;20088;-88
2023/01/11 04:57:12;;;;;;;4.90;3.88;;;;;;;9.09;100.00;100497.53;6179268;23;20032;-90
2023/01/11 04:59:38;;;;;;;4.30;3.90;;;;;;;9.03;100.00;100486.34;6153659;23;20005;-89
2023/01/11 05:02:03;;;;;;;5.85;4.15;;;;;;;8.89;100.00;100464.00;6178784;23;20031;-89
2023/01/11 05:04:29;;;;;;;4.47;3.40;;;;;;;8.96;100.00;100481.38;6145466;23;20029;-90
2023/01/11 05:06:54;;;;;;;4.07;3.60;;;;;;;8.90;100.00;100487.00;6153789;23;20422;-88
2023/01/11 05:09:20;;;;;;;4.47;3.47;;;;;;;8.94;100.00;100483.22;6152880;23;20096;-93
2023/01/11 05:11:45;;;;;;;4.70;3.65;;;;;;;8.90;100.00;100486.09;6155725;23;20005;-91
2023/01/11 05:14:13;;;;;;;5.47;3.45;;;;;;;9.04;100.00;100501.38;6152835;23;20123;-90
2023/01/11 05:16:38;;;;;;;7.57;3.15;;;;;;;9.13;100.00;100522.13;6157202;23;20362;-90
2023/01/11 05:19:05;;;;;;;4.30;3.10;;;;;;;9.20;100.00;100532.38;6157001;23;20013;-92
2023/01/11 05:21:33;;;;;;;4.93;2.80;;;;;;;9.18;100.00;100542.22;6166230;23;20068;-90
2023/01/11 05:24:00;;;;;;;8.05;3.15;;;;;;;9.10;100.00;100514.31;6152525;23;20028;-87
2023/01/11 05:26:28;;;;;;;7.00;3.38;;;;;;;9.19;100.00;100540.41;6164709;23;19994;-91
2023/01/11 05:28:56;;;;;;;13.43;4.30;;;;;;;8.95;100.00;100500.88;6173890;23;20014;-89
2023/01/11 05:31:21;;;;;;;7.65;4.57;;;;;;;9.11;100.00;100537.28;6173078;23;20025;-90
2023/01/11 05:33:47;;;;;;;8.88;5.20;;;;;;;9.08;100.00;100542.75;6153040;23;20021;-91
2023/01/11 05:36:14;;;;;;;10.88;5.30;;;;;;;9.04;100.00;100542.03;6152361;23;20068;-91
2023/01/11 05:38:40;;;;;;;8.63;5.60;;;;;;;9.00;100.00;100527.19;6127403;23;20068;-91
2023/01/11 05:41:08;;;;;;;9.35;5.70;;;;;;;8.83;100.00;100501.50;6124402;23;20009;-92
2023/01/11 05:45:27;;;;;;;9.27;6.53;;;;;;;8.96;100.00;100522.97;6123060;23;20013;-94
2023/01/11 05:46:20;;;;;;;10.07;6.10;;;;;;;9.03;100.00;100548.28;6151568;23;20017;-94
2023/01/11 05:48:46;;;;;;;9.30;5.93;;;;;;;9.05;100.00;100553.53;6150344;23;20017;-95
2023/01/11 05:51:11;;;;;;;8.30;6.07;;;;;;;8.80;100.00;100514.03;6122493;23;20044;-93
2023/01/11 05:53:36;;;;;;;9.35;6.07;;;;;;;8.81;100.00;100508.66;6123179;23;20490;-94
2023/01/11 05:56:02;;;;;;;10.35;7.05;;;;;;;9.05;100.00;100549.06;6125157;23;20160;-92
2023/01/11 05:58:27;;;;;;;10.20;6.88;;;;;;;8.93;100.00;100523.13;6125248;23;20009;-93
2023/01/11 06:00:54;;;;;;;13.40;8.88;;;;;;;8.99;100.00;100538.75;6122618;23;20021;-88
2023/01/11 06:03:20;;;;;;;12.27;8.43;;;;;;;9.00;100.00;100544.94;6149356;23;20061;-94
2023/01/11 06:05:46;;;;;;;13.23;8.98;;;;;;;8.92;100.00;100532.88;6136842;23;20044;-88
2023/01/11 06:08:12;;;;;;;15.35;9.98;;;;;;;9.02;100.00;100553.66;6171934;23;20010;-91
2023/01/11 06:10:38;;;;;;;12.93;9.98;;;;;;;8.91;100.00;100549.75;6175800;23;20009;-91
2023/01/11 06:15:47;;;;;;;18.88;12.20;;;;;;;9.00;100.00;100539.63;6155551;23;20068;-90
2023/01/11 06:18:13;;;;;;;16.45;11.65;;;;;;;8.97;100.00;100546.78;6153476;23;20009;-91
2023/01/11 06:20:38;;;;;;;18.77;12.93;;;;;;;9.06;100.00;100564.06;6151865;23;20013;-90
2023/01/11 06:23:03;;;;;;;22.90;13.82;;;;;;;8.91;100.00;100539.13;6152197;23;20001;-91
2023/01/11 06:25:29;;;;;;;25.38;15.00;;;;;;;8.94;100.00;100556.69;6126556;23;20016;-90
2023/01/11 06:27:55;;;;;;;22.98;13.77;;;;;;;8.98;100.00;100579.50;6151203;23;20049;-90
2023/01/11 06:30:24;;;;;;;22.05;14.27;;;;;;;8.85;100.00;100565.09;6150217;23;20030;-89
2023/01/11 06:32:50;;;;;;;20.10;12.73;;;;;;;8.91;100.00;100580.75;6148601;23;20486;-88
2023/01/11 06:35:15;;;;;;;18.80;12.40;;;;;;;8.86;100.00;100601.31;6148482;23;20006;-89
2023/01/11 06:37:40;;;;;;;18.17;11.25;;;;;;;8.80;100.00;100615.75;6149445;23;20037;-90
2023/01/11 06:40:06;;;;;;;16.27;11.05;;;;;;;8.74;100.00;100605.44;6148792;23;20032;-88
2023/01/11 06:42:31;;;;;;;16.67;10.38;;;;;;;8.72;100.00;100604.63;6148080;23;20477;-89
2023/01/11 06:44:57;;;;;;;18.52;10.48;;;;;;;8.66;100.00;100613.75;6148643;23;20005;-89
2023/01/11 06:47:22;;;;;;;20.40;8.57;;;;;;;8.61;100.00;100623.72;6148499;23;20335;-88
2023/01/11 06:49:47;;;;;;;19.75;8.40;;;;;;;8.58;100.00;100631.81;6149612;23;20403;-88
2023/01/11 06:52:13;;;;;;;20.25;7.20;;;;;;;8.56;100.00;100651.38;6148410;23;20013;-87
2023/01/11 06:54:38;;;;;;;20.13;7.00;;;;;;;8.05;100.00;100570.56;6151197;23;20045;-85
2023/01/11 06:57:03;;;;;;;14.82;6.07;;;;;;;8.25;100.00;100620.91;6153929;23;20010;-86
2023/01/11 06:59:28;;;;;;;26.63;6.65;;;;;;;8.41;100.00;100652.94;6126833;23;20331;-86
2023/01/11 07:01:54;;;;;;;21.52;6.65;;;;;;;7.98;100.00;100588.50;6150112;23;20085;-86
2023/01/11 07:04:20;;;;;;;22.23;7.05;;;;;;;8.42;100.00;100652.84;6158637;23;20017;-86
2023/01/11 07:06:45;;;;;;;24.00;7.32;;;;;;;8.41;100.00;100658.25;6163432;23;20032;-86
2023/01/11 07:09:11;;;;;;;21.25;6.68;;;;;;;8.36;100.00;100649.56;6167617;23;20021;-86
2023/01/11 07:11:38;;;;;;;26.40;7.75;;;;;;;8.23;100.00;100639.53;6156615;23;20040;-86
2023/01/11 07:14:04;;;;;;;22.67;7.00;;;;;;;8.25;100.00;100650.06;6154869;23;20016;-86
2023/01/11 07:16:30;;;;;;;21.80;7.25;;;;;;;8.27;100.00;100658.81;6121964;23;20339;-87
2023/01/11 07:18:55;;;;;;;26.77;7.25;;;;;;;8.25;100.00;100671.28;6150628;23;20013;-87
2023/01/11 07:21:20;;;;;;;29.95;7.57;;;;;;;8.23;100.00;100691.69;6148772;23;20021;-87
2023/01/11 07:23:47;;;;;;;31.27;7.82;;;;;;;8.18;100.00;100680.41;6148287;23;20088;-87
2023/01/11 07:26:15;;;;;;;31.02;8.25;;;;;;;8.19;100.00;100704.25;6150008;23;20407;-86
2023/01/11 07:28:41;;;;;;;26.83;7.63;;;;;;;8.16;100.00;100700.84;6150332;23;20013;-86
2023/01/11 07:31:06;;;;;;;29.23;7.60;;;;;;;8.08;100.00;100690.56;6149900;23;20028;-86
2023/01/11 07:33:31;;;;;;;26.45;8.60;;;;;;;8.11;100.00;100702.81;6146908;23;20012;-86
2023/01/11 07:35:59;;;;;;;29.52;7.68;;;;;;;8.08;100.00;100700.31;6123924;23;20017;-88
2023/01/11 07:38:25;;;;;;;29.33;8.40;;;;;;;7.98;100.00;100681.28;6121780;23;20009;-87
2023/01/11 07:40:50;;;;;;;25.40;6.65;;;;;;;8.03;100.00;100718.22;6149947;23;20004;-87
2023/01/11 07:43:21;;;;;;;31.27;7.30;;;;;;;7.96;100.00;100718.47;6151779;23;20013;-88
2023/01/11 07:45:49;;;;;;;31.52;6.82;;;;;;;7.93;100.00;100718.56;6152497;23;20092;-87
2023/01/11 07:48:19;;;;;;;26.48;6.55;;;;;;;7.89;100.00;100719.63;6150808;23;20087;-87
2023/01/11 07:50:46;;;;;;;30.85;7.18;;;;;;;7.89;100.00;100738.19;6152084;23;19998;-87
2023/01/11 07:53:12;;;;;;;29.10;7.57;;;;;;;7.90;100.00;100744.34;6151377;23;20376;-87
2023/01/11 07:55:38;;;;;;;34.08;8.82;;;;;;;7.52;100.00;100693.78;6148900;23;20439;-86
2023/01/11 07:58:04;;;;;;;28.20;6.90;;;;;;;7.56;100.00;100715.72;6125329;23;20007;-87
2023/01/11 08:02:55;;;;;;;31.83;7.53;;;;;;;7.54;100.00;100718.44;6145077;23;20045;-86
2023/01/11 08:05:20;;;;;;;28.17;6.88;;;;;;;7.70;100.00;100756.63;6151222;23;20044;-86
2023/01/11 08:07:46;;;;;;;25.10;6.75;;;;;;;7.67;100.00;100763.84;6151655;23;20028;-87
2023/01/11 08:10:12;;;;;;;35.65;6.80;;;;;;;7.64;100.00;100756.00;6148655;23;20056;-86
2023/01/11 08:15:33;;;;;;;29.83;6.68;;;;;;;7.54;100.00;100770.56;6149737;23;20029;-91
2023/01/11 08:18:01;;;;;;;33.45;6.95;;;;;;;7.63;100.00;100786.06;6150820;23;20010;-84
2023/01/11 08:20:26;;;;;;;34.60;7.20;;;;;;;7.60;100.00;100778.25;6146539;23;20008;-84
2023/01/11 08:22:52;;;;;;;32.15;7.53;;;;;;;7.58;100.00;100796.00;6147492;23;20009;-84
2023/01/11 08:25:17;;;;;;;27.23;7.60;;;;;;;7.61;100.00;100801.19;6147186;23;20013;-84
2023/01/11 08:27:43;;;;;;;25.10;6.43;;;;;;;7.43;100.00;100785.06;6120604;23;20315;-84
2023/01/11 08:30:10;;;;;;;32.47;6.88;;;;;;;7.59;100.00;100824.19;6121901;23;20009;-84
2023/01/11 08:32:35;;;;;;;24.88;6.03;;;;;;;7.60;100.00;100823.28;6094187;23;20621;-84
2023/01/11 08:35:00;;;;;;;25.98;6.63;;;;;;;7.50;100.00;100822.78;6147912;23;20092;-84
2023/01/11 08:37:26;;;;;;;27.88;5.85;;;;;;;7.55;100.00;100843.78;6148484;23;20006;-84
2023/01/11 08:39:51;;;;;;;29.17;5.93;;;;;;;7.48;100.00;100832.53;6149908;23;20006;-84
2023/01/11 08:42:16;;;;;;;28.15;5.60;;;;;;;7.49;100.00;100840.44;6122044;23;20009;-84
2023/01/11 08:44:41;;;;;;;31.73;6.82;;;;;;;7.46;100.00;100843.22;6146793;23;20005;-85
2023/01/11 08:47:07;;;;;;;22.08;5.30;;;;;;;7.44;100.00;100860.94;6147581;23;20037;-84
2023/01/11 08:49:32;;;;;;;29.10;5.85;;;;;;;7.34;100.00;100848.97;6147565;23;20001;-84
2023/01/11 08:51:58;;;;;;;24.02;5.28;;;;;;;7.36;100.00;100846.28;6146112;23;20010;-84
2023/01/11 08:54:23;;;;;;;20.08;4.90;;;;;;;7.33;100.00;100854.31;6121701;23;20437;-85
2023/01/11 08:56:49;;;;;;;23.73;4.82;;;;;;;7.19;100.00;100845.13;6122197;23;20010;-84
2023/01/11 08:59:14;;;;;;;27.48;5.68;;;;;;;7.23;100.00;100861.72;6118927;23;20017;-85
2023/01/11 09:01:40;;;;;;;19.52;4.97;;;;;;;7.26;100.00;100871.34;6143856;23;20423;-85
2023/01/11 09:04:05;;;;;;;28.60;5.65;;;;;;;7.24;100.00;100880.22;6144654;23;20490;-84
2023/01/11 09:06:31;;;;;;;31.17;6.03;;;;;;;7.26;100.00;100874.84;6147921;23;20457;-85
2023/01/11 09:08:56;;;;;;;25.30;6.20;;;;;;;7.27;100.00;100889.81;6120365;23;20006;-84
2023/01/11 09:14:05;;;;;;;;;;;;;;;7.20;100.00;100890.97;6147438;23;20020;-84
2023/01/11 09:16:30;;;;;;;32.03;5.13;;;;;;;7.15;100.00;100872.63;6145560;23;19912;-84
2023/01/11 09:18:56;;;;;;;22.63;5.03;;;;;;;7.13;100.00;100878.88;6146968;23;20009;-84
2023/01/11 09:21:22;;;;;;;22.75;5.18;;;;;;;7.19;100.00;100879.53;6147128;23;20521;-84
2023/01/11 09:23:48;;;;;;;19.30;4.95;;;;;;;7.18;100.00;100879.56;6147800;23;20341;-84
2023/01/11 09:26:13;;;;;;;29.27;5.78;;;;;;;7.17;100.00;100883.13;6118220;23;20013;-85
2023/01/11 09:28:39;;;;;;;25.30;5.25;;;;;;;7.22;100.00;100905.88;6148127;23;20072;-84
2023/01/11 09:31:05;;;;;;;20.60;5.30;;;;;;;7.17;100.00;100894.59;6147660;23;20040;-86
2023/01/11 09:33:30;;;;;;;21.23;5.00;;;;;;;7.23;100.00;100901.44;6147658;23;20013;-85
2023/01/11 09:35:57;;;;;;;25.40;5.65;;;;;;;7.19;100.00;100905.09;6144498;23;20010;-84
2023/01/11 09:40:56;;;;;;;19.88;5.07;;;;;;;6.98;100.00;100890.84;6143158;23;20024;-85
2023/01/11 09:43:26;;;;;;;23.13;5.85;;;;;;;7.07;100.00;100918.81;6147534;23;20020;-84
2023/01/11 09:45:54;;;;;;;20.90;5.30;;;;;;;6.98;100.00;100926.16;6147042;23;20009;-85
2023/01/11 09:48:43;;;;;;;20.92;5.70;;;;;;;6.70;100.00;100878.59;6148289;23;20076;-84
2023/01/11 09:51:14;;;;;;;25.77;6.70;;;;;;;6.87;100.00;100933.59;6143681;23;20091;-85
2023/01/11 09:53:45;;;;;;;22.83;5.22;;;;;;;6.88;100.00;100937.94;6148753;23;20009;-85
2023/01/11 09:56:13;;;;;;;22.00;5.03;;;;;;;6.85;100.00;100932.75;6145928;23;20005;-85
2023/01/11 09:59:04;;;;;;;25.33;5.38;;;;;;;6.81;100.00;100935.56;6148235;23;20071;-85
2023/01/11 10:01:48;;;;;;;20.58;4.60;;;;;;;6.81;100.00;100938.19;6147188;23;20013;-85
2023/01/11 10:04:44;;;;;;;28.83;5.43;;;;;;;6.80;100.00;100947.06;6122062;23;20021;-85
2023/01/11 10:07:36;;;;;;;24.50;5.13;;;;;;;6.88;100.00;100952.97;6125755;23;20575;-85
2023/01/11 10:10:20;;;;;;;21.50;5.35;;;;;;;6.93;100.00;100943.94;6187705;23;20198;-85
2023/01/11 10:13:16;;;;;;;;;;;;;;;6.90;100.00;100938.78;6190481;23;20001;-85
2023/01/11 10:19:04;;;;;;;25.33;6.03;;;;;;;7.03;100.00;100936.56;6146726;23;20425;-85
2023/01/11 10:21:53;;;;;;;23.73;5.45;;;;;;;7.00;100.00;100939.31;6143667;23;20017;-86
2023/01/11 10:24:34;;;;;;;24.70;5.68;;;;;;;7.11;100.00;100944.25;6147898;23;20009;-86
2023/01/11 10:27:06;;;;;;;24.25;6.57;;;;;;;7.13;100.00;100937.09;6145009;23;20009;-84
2023/01/11 10:29:52;;;;;;;21.27;6.35;;;;;;;7.16;100.00;100945.81;6147123;23;20008;-84
2023/01/11 10:33:05;;;;;;;20.95;6.88;;;;;;;7.19;100.00;100943.06;6145831;23;20006;-84
2023/01/11 10:38:56;;;;;;;20.75;6.57;;;;;;;7.31;100.00;100949.69;6112408;23;20020;-84
2023/01/11 10:41:36;;;;;;;24.63;7.28;;;;;;;7.32;100.00;100934.69;6145451;23;20470;-84
2023/01/11 10:44:08;;;;;;;26.65;7.50;;;;;;;7.35;100.00;100955.72;6147855;23;20008;-86
2023/01/11 10:46:39;;;;;;;21.80;8.38;;;;;;;7.33;100.00;100941.69;6145394;23;20009;-84
2023/01/11 10:49:42;;;;;;;24.15;8.27;;;;;;;7.37;100.00;100949.47;6143909;23;20871;-85
2023/01/11 10:52:32;;;;;;;25.85;9.05;;;;;;;7.37;100.00;100936.25;6144547;23;20021;-84
2023/01/11 10:54:59;;;;;;;30.60;10.00;;;;;;;7.48;100.00;100947.31;6142575;23;20002;-85
2023/01/11 10:57:54;;;;;;;23.30;9.13;;;;;;;7.51;100.00;100948.09;6148674;23;20005;-85
2023/01/11 11:00:32;;;;;;;24.63;8.82;;;;;;;7.53;100.00;100943.63;6149202;23;20160;-85
2023/01/11 11:03:09;;;;;;;19.33;7.65;;;;;;;7.47;100.00;100942.91;6149100;23;20013;-85
2023/01/11 11:05:46;;;;;;;22.17;8.73;;;;;;;7.47;100.00;100947.34;6147973;23;20013;-84
2023/01/11 11:08:26;;;;;;;24.88;8.40;;;;;;;7.53;100.00;100943.63;6148447;23;20005;-84
2023/01/11 11:11:28;;;;;;;23.55;8.45;;;;;;;7.56;100.00;100943.50;6150973;23;20093;-85
2023/01/11 11:14:22;;;;;;;24.75;8.15;;;;;;;7.56;100.00;100941.72;6135904;23;20013;-85
2023/01/11 11:17:04;;;;;;;24.52;7.63;;;;;;;7.53;100.00;100952.44;6146205;23;20010;-85
2023/01/11 11:19:32;;;;;;;18.65;6.05;;;;;;;7.43;100.00;100932.50;6151373;23;20012;-85
2023/01/11 11:21:57;;;;;;;26.13;7.78;;;;;;;7.54;100.00;100963.91;6152269;23;20080;-85
2023/01/11 11:24:31;;;;;;;20.73;6.40;;;;;;;7.53;100.00;100960.38;6149936;23;20639;-85
2023/01/11 11:27:02;;;;;;;27.75;6.95;;;;;;;7.55;100.00;100960.31;6151806;23;20005;-85
2023/01/11 11:29:29;;;;;;;22.77;6.88;;;;;;;7.57;100.00;100958.50;6158987;23;20145;-85
2023/01/11 11:31:57;;;;;;;23.63;6.43;;;;;;;7.69;100.00;100955.38;6174921;23;20017;-85
2023/01/11 11:34:26;;;;;;;18.08;6.25;;;;;;;7.74;100.00;100959.59;6174415;23;19994;-85
2023/01/11 11:36:52;;;;;;;22.67;7.28;;;;;;;7.77;100.00;100953.28;6177902;23;20045;-85
2023/01/11 11:39:21;;;;;;;21.67;6.32;;;;;;;7.86;100.00;100962.69;6178609;23;20064;-85
2023/01/11 11:41:47;;;;;;;20.40;6.38;;;;;;;7.84;100.00;100953.94;6175627;23;20036;-85
2023/01/11 11:44:16;;;;;;;22.85;6.00;;;;;;;7.87;100.00;100962.66;6174735;23;19993;-85
2023/01/11 11:46:56;;;;;;;21.67;5.75;;;;;;;7.89;100.00;100966.09;6172643;23;20089;-84
2023/01/11 11:49:24;;;;;;;17.80;5.63;;;;;;;7.88;100.00;100974.97;6155792;23;20085;-85
2023/01/11 11:51:51;;;;;;;21.83;5.60;;;;;;;7.86;100.00;100962.69;6153199;23;20403;-85
2023/01/11 11:54:26;;;;;;;22.13;6.38;;;;;;;7.85;100.00;100960.97;6153974;23;20068;-85
2023/01/11 11:56:53;;;;;;;21.25;6.63;;;;;;;7.85;100.00;100955.66;6154086;23;20008;-85
2023/01/11 11:59:21;;;;;;;22.88;5.53;;;;;;;7.89;100.00;100978.47;6154069;23;20052;-85
2023/01/11 12:01:55;;;;;;;18.35;5.45;;;;;;;7.85;100.00;100955.66;6152077;23;20207;-85
2023/01/11 12:04:30;;;;;;;17.88;5.72;;;;;;;7.90;100.00;100961.66;6153135;23;20010;-85
2023/01/11 12:07:11;;;;;;;22.23;5.45;;;;;;;8.11;100.00;100970.56;6154160;23;20025;-85